Amber, Iowa
Current Conditions -  °F | °C
As of 7:55 AM on Thursday 23 Oct 2014 (Local Time) from KMXO Reporting Station
Overcast Overcast  
Wind Chill: 44°   Ceiling: 3700
Heat Index: 46°   Visibility: 10mi
Dew Point: 39°   Wind: 6mph
Humidity: 76%   Direction: NA
Pressure: 30.09"   Gusts: NA
Location:  42.1396°N, 91.2844°W
Report Text: KMXO 231255Z AUTO VRB05KT 10SM BKN037 BKN043 OVC060 08/04 A3009 RMK AO2
Loading
Personal Weather Stations






























Interactive Weather Map New forecast layout! Learn more

10-Day Weather Forecast

Advertisements
Track Severe Weather on mobile